createdAt,value
2022-09-01T00:00:02.604Z,2.80
2022-09-01T00:01:00.280Z,2.80
2022-09-01T00:02:00.262Z,2.80
2022-09-01T00:03:00.371Z,2.80
2022-09-01T00:04:00.488Z,2.80
2022-09-01T00:05:00.296Z,2.80
2022-09-01T00:06:00.320Z,2.80
2022-09-01T00:07:00.255Z,2.80
2022-09-01T00:08:00.269Z,2.80
2022-09-01T00:09:02.748Z,2.80
2022-09-01T00:10:01.287Z,2.80
2022-09-01T00:11:00.283Z,2.80
2022-09-01T00:12:00.842Z,2.80
2022-09-01T00:13:00.262Z,2.80
2022-09-01T00:14:01.050Z,2.50
2022-09-01T00:15:00.608Z,2.50
2022-09-01T00:16:00.603Z,2.50
2022-09-01T00:17:01.480Z,2.50
2022-09-01T00:18:00.374Z,2.50
2022-09-01T00:19:00.796Z,2.50
2022-09-01T00:20:00.273Z,2.50
2022-09-01T00:21:00.653Z,2.50
2022-09-01T00:22:01.069Z,2.50
2022-09-01T00:23:00.258Z,2.50
2022-09-01T00:24:00.801Z,2.50
2022-09-01T00:25:00.497Z,2.50
2022-09-01T00:26:00.297Z,2.50
2022-09-01T00:27:00.292Z,2.50
2022-09-01T00:28:00.368Z,2.50
2022-09-01T00:29:00.388Z,2.50
2022-09-01T00:30:00.377Z,2.50
2022-09-01T00:31:00.340Z,2.50
2022-09-01T00:32:00.290Z,2.50
2022-09-01T00:33:00.296Z,2.50
2022-09-01T00:34:00.565Z,2.50
2022-09-01T00:35:00.413Z,2.50
2022-09-01T00:36:00.460Z,2.50
2022-09-01T00:37:00.291Z,2.50
2022-09-01T00:38:00.265Z,2.50
2022-09-01T00:39:00.562Z,2.50
2022-09-01T00:40:00.272Z,2.50
2022-09-01T00:41:00.533Z,2.50
2022-09-01T00:42:00.262Z,2.50
2022-09-01T00:43:00.268Z,2.50
2022-09-01T00:44:02.426Z,2.60
2022-09-01T00:45:00.265Z,2.60
2022-09-01T00:46:00.371Z,2.60
2022-09-01T00:47:00.293Z,2.60
2022-09-01T00:48:00.352Z,2.60
2022-09-01T00:49:01.973Z,2.60
2022-09-01T00:50:01.637Z,2.60
2022-09-01T00:51:00.909Z,2.60
2022-09-01T00:52:03.282Z,2.60
2022-09-01T00:53:00.347Z,2.60
2022-09-01T00:54:00.722Z,2.60
2022-09-01T00:55:03.526Z,2.60
2022-09-01T00:56:01.147Z,2.60
2022-09-01T00:57:01.853Z,2.60
2022-09-01T00:58:01.207Z,2.60
2022-09-01T00:59:00.490Z,2.60
2022-09-01T01:00:04.456Z,2.60
2022-09-01T01:01:00.820Z,2.60
2022-09-01T01:02:00.332Z,2.60
2022-09-01T01:03:00.492Z,2.60
2022-09-01T01:04:00.325Z,2.60
2022-09-01T01:05:00.266Z,2.60
2022-09-01T01:06:01.786Z,2.60
2022-09-01T01:07:00.697Z,2.60
2022-09-01T01:08:01.236Z,2.60
2022-09-01T01:09:00.444Z,2.60
2022-09-01T01:10:00.288Z,2.60
2022-09-01T01:11:01.890Z,2.60
2022-09-01T01:12:01.566Z,2.60
2022-09-01T01:13:00.635Z,2.60
2022-09-01T01:14:02.706Z,2.40
2022-09-01T01:15:00.292Z,2.40
2022-09-01T01:16:00.984Z,2.40
2022-09-01T01:17:00.511Z,2.40
2022-09-01T01:18:00.266Z,2.40
2022-09-01T01:19:00.345Z,2.40
2022-09-01T01:20:00.601Z,2.40
2022-09-01T01:21:04.851Z,2.40
2022-09-01T01:22:00.656Z,2.40
2022-09-01T01:23:00.344Z,2.40
2022-09-01T01:24:10.195Z,2.40
2022-09-01T01:25:00.293Z,2.40
2022-09-01T01:26:00.299Z,2.40
2022-09-01T01:27:00.288Z,2.40
2022-09-01T01:28:10.187Z,2.40
2022-09-01T01:29:00.310Z,2.40
2022-09-01T01:30:00.978Z,2.40
2022-09-01T01:31:10.242Z,2.40
2022-09-01T01:32:00.491Z,2.40
2022-09-01T01:33:00.352Z,2.40
2022-09-01T01:34:00.360Z,2.40
2022-09-01T01:35:00.413Z,2.40
2022-09-01T01:36:00.283Z,2.40
2022-09-01T01:37:00.272Z,2.40
2022-09-01T01:38:01.261Z,2.40
2022-09-01T01:39:01.605Z,2.40
2022-09-01T01:40:00.818Z,2.40
2022-09-01T01:41:00.661Z,2.40
2022-09-01T01:42:00.281Z,2.40
2022-09-01T01:43:00.318Z,2.40
2022-09-01T01:44:01.950Z,2.50
2022-09-01T01:45:00.267Z,2.50
2022-09-01T01:46:00.367Z,2.50
2022-09-01T01:47:00.281Z,2.50
2022-09-01T01:48:00.272Z,2.50
2022-09-01T01:49:00.469Z,2.50
2022-09-01T01:50:00.286Z,2.50
2022-09-01T01:51:00.866Z,2.50
2022-09-01T01:52:00.893Z,2.50
2022-09-01T01:53:01.759Z,2.50
2022-09-01T01:54:00.267Z,2.50
2022-09-01T01:55:04.979Z,2.50
2022-09-01T01:56:00.288Z,2.50
2022-09-01T01:57:00.690Z,2.50
2022-09-01T01:58:00.314Z,2.50
2022-09-01T01:59:00.284Z,2.50
2022-09-01T02:00:00.364Z,2.50
2022-09-01T02:01:00.466Z,2.50
2022-09-01T02:02:00.326Z,2.50
2022-09-01T02:03:00.348Z,2.50
2022-09-01T02:04:01.141Z,2.50
2022-09-01T02:05:00.268Z,2.50
2022-09-01T02:06:00.278Z,2.50
2022-09-01T02:07:00.291Z,2.50
2022-09-01T02:08:01.846Z,2.50
2022-09-01T02:09:00.391Z,2.50
2022-09-01T02:10:00.276Z,2.50
2022-09-01T02:11:01.445Z,2.50
2022-09-01T02:12:00.276Z,2.50
2022-09-01T02:13:01.214Z,2.50
2022-09-01T02:14:00.323Z,2.40
2022-09-01T02:15:00.402Z,2.40
2022-09-01T02:16:03.352Z,2.40
2022-09-01T02:17:00.470Z,2.40
2022-09-01T02:18:00.295Z,2.40
2022-09-01T02:19:01.014Z,2.40
2022-09-01T02:20:00.465Z,2.40
2022-09-01T02:21:01.277Z,2.40
2022-09-01T02:22:00.274Z,2.40
2022-09-01T02:23:00.290Z,2.40
2022-09-01T02:24:01.891Z,2.40
2022-09-01T02:25:00.285Z,2.40
2022-09-01T02:26:15.666Z,2.40
2022-09-01T02:27:00.264Z,2.40
2022-09-01T02:28:00.632Z,2.40
2022-09-01T02:29:03.092Z,2.40
2022-09-01T02:30:00.311Z,2.40
2022-09-01T02:31:00.382Z,2.40
2022-09-01T02:32:00.332Z,2.40
2022-09-01T02:33:00.306Z,2.40
2022-09-01T02:34:00.855Z,2.40
2022-09-01T02:35:00.292Z,2.40
2022-09-01T02:36:01.956Z,2.40
2022-09-01T02:37:00.305Z,2.40
2022-09-01T02:38:00.272Z,2.40
2022-09-01T02:39:00.307Z,2.40
2022-09-01T02:40:00.276Z,2.40
2022-09-01T02:41:01.496Z,2.40
2022-09-01T02:42:00.321Z,2.40
2022-09-01T02:43:00.338Z,2.40
2022-09-01T02:44:00.611Z,2.90
2022-09-01T02:45:00.339Z,2.90
2022-09-01T02:46:00.991Z,2.90
2022-09-01T02:47:00.283Z,2.90
2022-09-01T02:48:00.275Z,2.90
2022-09-01T02:49:00.263Z,2.90
2022-09-01T02:50:00.257Z,2.90
2022-09-01T02:51:01.468Z,2.90
2022-09-01T02:52:00.609Z,2.90
2022-09-01T02:53:03.811Z,2.90
2022-09-01T02:54:00.281Z,2.90
2022-09-01T02:55:00.300Z,2.90
2022-09-01T02:56:01.263Z,2.90
2022-09-01T02:57:00.503Z,2.90
2022-09-01T02:58:00.299Z,2.90
2022-09-01T02:59:00.429Z,2.90
2022-09-01T03:00:00.789Z,2.90
2022-09-01T03:01:00.468Z,2.90
2022-09-01T03:02:00.362Z,2.90
2022-09-01T03:03:00.779Z,2.90
2022-09-01T03:04:02.263Z,2.90
2022-09-01T03:05:00.413Z,2.90
2022-09-01T03:06:00.278Z,2.90
2022-09-01T03:07:04.473Z,2.90
2022-09-01T03:08:02.927Z,2.90
2022-09-01T03:09:00.933Z,2.90
2022-09-01T03:10:00.270Z,2.90
2022-09-01T03:11:00.263Z,2.90
2022-09-01T03:12:00.362Z,2.90
2022-09-01T03:13:01.669Z,2.90
2022-09-01T03:14:00.332Z,3.30
2022-09-01T03:15:00.607Z,3.30
2022-09-01T03:16:00.336Z,3.30
2022-09-01T03:17:00.354Z,3.30
2022-09-01T03:18:00.273Z,3.30
2022-09-01T03:19:00.332Z,3.30
2022-09-01T03:20:00.520Z,3.30
2022-09-01T03:21:00.472Z,3.30
2022-09-01T03:22:00.329Z,3.30
2022-09-01T03:23:01.116Z,3.30
2022-09-01T03:24:00.390Z,3.30
2022-09-01T03:25:00.259Z,3.30
2022-09-01T03:26:00.762Z,3.30
2022-09-01T03:27:00.277Z,3.30
2022-09-01T03:28:02.894Z,3.30
2022-09-01T03:29:00.284Z,3.30
2022-09-01T03:30:00.319Z,3.30
2022-09-01T03:31:00.349Z,3.30
2022-09-01T03:32:00.339Z,3.30
2022-09-01T03:33:01.116Z,3.30
2022-09-01T03:34:00.386Z,3.30
2022-09-01T03:35:00.327Z,3.30
2022-09-01T03:36:00.254Z,3.30
2022-09-01T03:37:00.286Z,3.30
2022-09-01T03:38:00.923Z,3.30
2022-09-01T03:39:00.752Z,3.30
2022-09-01T03:40:00.357Z,3.30
2022-09-01T03:41:02.330Z,3.30
2022-09-01T03:42:00.260Z,3.30
2022-09-01T03:43:01.642Z,3.30
2022-09-01T03:44:00.261Z,3.00
2022-09-01T03:45:00.722Z,3.00
2022-09-01T03:46:00.311Z,3.00
2022-09-01T03:47:00.255Z,3.00
2022-09-01T03:48:00.942Z,3.00
2022-09-01T03:49:00.274Z,3.00
2022-09-01T03:50:00.347Z,3.00
2022-09-01T03:51:00.336Z,3.00
2022-09-01T03:52:01.059Z,3.00
2022-09-01T03:53:00.265Z,3.00
2022-09-01T03:54:00.523Z,3.00
2022-09-01T03:55:00.262Z,3.00
2022-09-01T03:56:00.361Z,3.00
2022-09-01T03:57:00.317Z,3.00
2022-09-01T03:58:01.931Z,3.00
2022-09-01T03:59:00.298Z,3.00
2022-09-01T04:00:00.428Z,3.00
2022-09-01T04:01:00.461Z,3.00
2022-09-01T04:02:00.573Z,3.00
2022-09-01T04:03:02.028Z,3.00
2022-09-01T04:04:00.327Z,3.00
2022-09-01T04:05:00.286Z,3.00
2022-09-01T04:06:01.317Z,3.00
2022-09-01T04:07:00.314Z,3.00
2022-09-01T04:08:01.797Z,3.00
2022-09-01T04:09:00.257Z,3.00
2022-09-01T04:10:00.261Z,3.00
2022-09-01T04:11:01.854Z,3.00
2022-09-01T04:12:00.275Z,3.00
2022-09-01T04:13:01.453Z,3.00
2022-09-01T04:14:00.887Z,3.00
2022-09-01T04:15:00.260Z,3.00
2022-09-01T04:16:00.451Z,3.00
2022-09-01T04:17:00.281Z,3.00
2022-09-01T04:18:00.250Z,3.00
2022-09-01T04:19:00.281Z,3.00
2022-09-01T04:20:01.096Z,3.00
2022-09-01T04:21:00.518Z,3.00
2022-09-01T04:22:00.715Z,3.00
2022-09-01T04:23:00.269Z,3.00
2022-09-01T04:24:00.353Z,3.00
2022-09-01T04:25:00.264Z,3.00
2022-09-01T04:26:02.332Z,3.00
2022-09-01T04:27:01.387Z,3.00
2022-09-01T04:28:00.301Z,3.00
2022-09-01T04:29:00.270Z,3.00
2022-09-01T04:30:00.269Z,3.00
2022-09-01T04:31:02.442Z,3.00
2022-09-01T04:32:02.168Z,3.00
2022-09-01T04:33:00.257Z,3.00
2022-09-01T04:34:00.260Z,3.00
2022-09-01T04:35:00.326Z,3.00
2022-09-01T04:36:00.260Z,3.00
2022-09-01T04:37:00.277Z,3.00
2022-09-01T04:38:00.460Z,3.00
2022-09-01T04:39:00.846Z,3.00
2022-09-01T04:40:00.730Z,3.00
2022-09-01T04:41:04.432Z,3.00
2022-09-01T04:42:00.265Z,3.00
2022-09-01T04:43:00.521Z,3.00
2022-09-01T04:44:00.736Z,3.40
2022-09-01T04:45:01.936Z,3.40
2022-09-01T04:46:00.880Z,3.40
2022-09-01T04:47:00.276Z,3.40
2022-09-01T04:48:00.378Z,3.40
2022-09-01T04:49:01.612Z,3.40
2022-09-01T04:50:00.309Z,3.40
2022-09-01T04:51:00.269Z,3.40
2022-09-01T04:52:00.398Z,3.40
2022-09-01T04:53:01.243Z,3.40
2022-09-01T04:54:00.878Z,3.40
2022-09-01T04:55:00.317Z,3.40
2022-09-01T04:56:04.162Z,3.40
2022-09-01T04:57:00.271Z,3.40
2022-09-01T04:58:00.327Z,3.40
2022-09-01T04:59:00.291Z,3.40
2022-09-01T05:00:00.301Z,3.40
2022-09-01T05:01:00.476Z,3.40
2022-09-01T05:02:00.425Z,3.40
2022-09-01T05:03:01.437Z,3.40
2022-09-01T05:04:00.339Z,3.40
2022-09-01T05:05:00.260Z,3.40
2022-09-01T05:06:00.276Z,3.40
2022-09-01T05:07:01.383Z,3.40
2022-09-01T05:08:00.349Z,3.40
2022-09-01T05:09:00.261Z,3.40
2022-09-01T05:10:01.449Z,3.40
2022-09-01T05:11:03.422Z,3.40
2022-09-01T05:12:00.679Z,3.40
2022-09-01T05:13:00.339Z,3.40
2022-09-01T05:14:00.256Z,2.80
2022-09-01T05:15:00.786Z,2.80
2022-09-01T05:16:02.238Z,2.80
2022-09-01T05:17:00.272Z,2.80
2022-09-01T05:18:00.283Z,2.80
2022-09-01T05:19:00.572Z,2.80
2022-09-01T05:20:00.303Z,2.80
2022-09-01T05:21:04.051Z,2.80
2022-09-01T05:22:00.283Z,2.80
2022-09-01T05:23:00.340Z,2.80
2022-09-01T05:24:00.286Z,2.80
2022-09-01T05:25:00.680Z,2.80
2022-09-01T05:26:00.258Z,2.80
2022-09-01T05:27:00.345Z,2.80
2022-09-01T05:28:00.254Z,2.80
2022-09-01T05:29:02.246Z,2.80
2022-09-01T05:30:00.274Z,2.80
2022-09-01T05:31:00.305Z,2.80
2022-09-01T05:32:00.262Z,2.80
2022-09-01T05:33:00.322Z,2.80
2022-09-01T05:34:00.387Z,2.80
2022-09-01T05:35:00.254Z,2.80
2022-09-01T05:36:00.343Z,2.80
2022-09-01T05:37:00.255Z,2.80
2022-09-01T05:38:00.255Z,2.80
2022-09-01T05:39:00.521Z,2.80
2022-09-01T05:40:00.725Z,2.80
2022-09-01T05:41:01.380Z,2.80
2022-09-01T05:42:00.286Z,2.80
2022-09-01T05:43:00.255Z,2.80
2022-09-01T05:44:01.287Z,3.60
2022-09-01T05:45:00.306Z,3.60
2022-09-01T05:46:06.850Z,3.60
2022-09-01T05:47:00.578Z,3.60
2022-09-01T05:48:00.362Z,3.60
2022-09-01T05:49:00.615Z,3.60
2022-09-01T05:50:00.291Z,3.60
2022-09-01T05:51:00.289Z,3.60
2022-09-01T05:52:00.304Z,3.60
2022-09-01T05:53:00.302Z,3.60
2022-09-01T05:54:00.529Z,3.60
2022-09-01T05:55:00.288Z,3.60
2022-09-01T05:56:00.768Z,3.60
2022-09-01T05:57:17.334Z,3.60
2022-09-01T05:58:00.281Z,3.60
2022-09-01T05:59:26.193Z,3.60
2022-09-01T06:00:01.054Z,3.60
2022-09-01T06:01:00.382Z,3.60
2022-09-01T06:02:00.458Z,3.60
2022-09-01T06:03:00.599Z,3.60
2022-09-01T06:04:01.205Z,3.60
2022-09-01T06:05:00.297Z,3.60
2022-09-01T06:06:01.828Z,3.60
2022-09-01T06:07:07.909Z,3.60
2022-09-01T06:08:00.435Z,3.60
2022-09-01T06:09:00.323Z,3.60
2022-09-01T06:10:00.349Z,3.60
2022-09-01T06:11:00.313Z,3.60
2022-09-01T06:12:00.279Z,3.60
2022-09-01T06:13:00.279Z,3.60
2022-09-01T06:14:00.374Z,3.50
2022-09-01T06:15:00.280Z,3.50
2022-09-01T06:16:00.346Z,3.50
2022-09-01T06:17:00.271Z,3.50
2022-09-01T06:18:00.398Z,3.50
2022-09-01T06:19:00.822Z,3.50
2022-09-01T06:20:00.397Z,3.50
2022-09-01T06:21:02.427Z,3.50
2022-09-01T06:22:00.274Z,3.50
2022-09-01T06:23:00.282Z,3.50
2022-09-01T06:24:00.295Z,3.50
2022-09-01T06:25:02.685Z,3.50
2022-09-01T06:26:00.705Z,3.50
2022-09-01T06:27:00.280Z,3.50
2022-09-01T06:28:00.366Z,3.50
2022-09-01T06:29:02.710Z,3.50
2022-09-01T06:30:00.590Z,3.50
2022-09-01T06:31:05.055Z,3.50
2022-09-01T06:32:00.288Z,3.50
2022-09-01T06:33:00.258Z,3.50
2022-09-01T06:34:01.903Z,3.50
2022-09-01T06:35:00.268Z,3.50
2022-09-01T06:36:01.022Z,3.50
2022-09-01T06:37:00.578Z,3.50
2022-09-01T06:38:00.324Z,3.50
2022-09-01T06:39:00.305Z,3.50
2022-09-01T06:40:00.282Z,3.50
2022-09-01T06:41:02.398Z,3.50
2022-09-01T06:42:00.270Z,3.50
2022-09-01T06:43:00.712Z,3.50
2022-09-01T06:44:00.322Z,3.40
2022-09-01T06:45:00.852Z,3.40
2022-09-01T06:46:01.380Z,3.40
2022-09-01T06:47:00.515Z,3.40
2022-09-01T06:48:00.504Z,3.40
2022-09-01T06:49:00.275Z,3.40
2022-09-01T06:50:00.341Z,3.40
2022-09-01T06:51:19.211Z,3.40
2022-09-01T06:52:01.188Z,3.40
2022-09-01T06:54:00.268Z,3.40
2022-09-01T06:55:03.430Z,3.40
2022-09-01T06:56:00.293Z,3.40
2022-09-01T06:57:01.278Z,3.40
2022-09-01T06:58:04.828Z,3.40
2022-09-01T06:59:01.115Z,3.40
2022-09-01T07:00:00.384Z,3.40
2022-09-01T07:01:04.622Z,3.40
2022-09-01T07:02:02.463Z,3.40
2022-09-01T07:03:00.271Z,3.40
2022-09-01T07:04:00.700Z,3.40
2022-09-01T07:05:00.270Z,3.40
2022-09-01T07:06:04.221Z,3.40
2022-09-01T07:07:53.098Z,3.40
2022-09-01T07:08:05.887Z,3.40
2022-09-01T07:10:18.690Z,3.40
2022-09-01T07:12:24.291Z,3.40
2022-09-01T07:13:06.677Z,3.40
2022-09-01T07:14:16.519Z,3.40
2022-09-01T07:17:23.849Z,3.40
2022-09-01T07:18:00.278Z,3.40
2022-09-01T07:19:01.649Z,3.40
2022-09-01T07:20:23.325Z,3.40
2022-09-01T07:21:07.655Z,3.40
2022-09-01T07:22:07.677Z,3.40
2022-09-01T07:23:04.247Z,3.40
2022-09-01T07:24:10.546Z,3.40
2022-09-01T07:25:12.774Z,3.40
2022-09-01T07:26:04.514Z,3.40
2022-09-01T07:27:07.766Z,3.40
2022-09-01T07:28:00.398Z,3.40
2022-09-01T07:30:00.303Z,3.40
2022-09-01T07:31:48.840Z,3.40
2022-09-01T07:33:41.553Z,3.40
2022-09-01T07:35:00.939Z,3.40
2022-09-01T07:36:29.560Z,3.40
2022-09-01T07:38:47.025Z,3.40
2022-09-01T07:42:31.639Z,3.40
2022-09-01T07:44:01.081Z,3.10
2022-09-01T07:45:25.548Z,3.10
2022-09-01T07:46:36.638Z,3.10
2022-09-01T07:47:52.372Z,3.10
2022-09-01T07:48:00.402Z,3.10
2022-09-01T07:49:03.306Z,3.10
2022-09-01T07:50:37.541Z,3.10
2022-09-01T07:51:35.607Z,3.10
2022-09-01T07:52:00.301Z,3.10
2022-09-01T07:53:00.265Z,3.10
2022-09-01T07:54:00.640Z,3.10
2022-09-01T07:55:00.471Z,3.10
2022-09-01T07:56:04.987Z,3.10
2022-09-01T07:57:00.328Z,3.10
2022-09-01T07:58:00.274Z,3.10
2022-09-01T07:59:00.261Z,3.10
2022-09-01T08:00:00.414Z,3.10
2022-09-01T08:01:00.671Z,3.10
2022-09-01T08:02:00.394Z,3.10
2022-09-01T08:03:00.389Z,3.10
2022-09-01T08:04:00.292Z,3.10
2022-09-01T08:05:00.259Z,3.10
2022-09-01T08:06:02.956Z,3.10
2022-09-01T08:07:00.275Z,3.10
2022-09-01T08:08:00.276Z,3.10
2022-09-01T08:09:00.279Z,3.10
2022-09-01T08:10:01.460Z,3.10
2022-09-01T08:11:05.555Z,3.10
2022-09-01T08:12:02.937Z,3.10
2022-09-01T08:13:00.259Z,3.10
2022-09-01T08:14:00.272Z,3.30
2022-09-01T08:15:41.030Z,3.30
2022-09-01T08:16:08.690Z,3.30
2022-09-01T08:17:15.782Z,3.30
2022-09-01T08:18:00.331Z,3.30
2022-09-01T08:19:00.397Z,3.30
2022-09-01T08:20:00.748Z,3.30
2022-09-01T08:21:04.925Z,3.30
2022-09-01T08:22:00.644Z,3.30
2022-09-01T08:23:00.528Z,3.30
2022-09-01T08:24:00.718Z,3.30
2022-09-01T08:25:00.300Z,3.30
2022-09-01T08:26:03.954Z,3.30
2022-09-01T08:27:00.255Z,3.30
2022-09-01T08:28:01.261Z,3.30
2022-09-01T08:29:00.291Z,3.30
2022-09-01T08:30:00.373Z,3.30
2022-09-01T08:31:08.969Z,3.30
2022-09-01T08:32:00.297Z,3.30
2022-09-01T08:33:10.054Z,3.30
2022-09-01T08:34:00.373Z,3.30
2022-09-01T08:35:00.285Z,3.30
2022-09-01T08:36:00.727Z,3.30
2022-09-01T08:37:00.261Z,3.30
2022-09-01T08:38:00.279Z,3.30
2022-09-01T08:39:00.335Z,3.30
2022-09-01T08:40:00.340Z,3.30
2022-09-01T08:41:01.136Z,3.30
2022-09-01T08:42:10.169Z,3.30
2022-09-01T08:43:14.716Z,3.30
2022-09-01T08:44:10.184Z,3.20
2022-09-01T08:45:10.171Z,3.20
2022-09-01T08:46:08.184Z,3.20
2022-09-01T08:47:02.987Z,3.20
2022-09-01T08:48:40.852Z,3.20
2022-09-01T08:49:27.160Z,3.20
2022-09-01T08:50:00.393Z,3.20
2022-09-01T08:51:14.868Z,3.20
2022-09-01T08:52:09.506Z,3.20
2022-09-01T08:53:09.462Z,3.20
2022-09-01T08:54:10.175Z,3.20
2022-09-01T08:55:10.172Z,3.20
2022-09-01T08:56:00.268Z,3.20
2022-09-01T08:57:04.110Z,3.20
2022-09-01T08:58:00.434Z,3.20
2022-09-01T08:59:02.401Z,3.20
2022-09-01T09:00:00.465Z,3.20
2022-09-01T09:01:07.317Z,3.20
2022-09-01T09:02:00.339Z,3.20
2022-09-01T09:03:03.630Z,3.20
2022-09-01T09:04:03.516Z,3.20
2022-09-01T09:05:16.093Z,3.20
2022-09-01T09:06:05.398Z,3.20
2022-09-01T09:07:06.788Z,3.20
2022-09-01T09:08:10.168Z,3.20
2022-09-01T09:09:01.594Z,3.20
2022-09-01T09:10:10.172Z,3.20
2022-09-01T09:11:03.144Z,3.20
2022-09-01T09:12:08.772Z,3.20
2022-09-01T09:13:07.267Z,3.20
2022-09-01T09:14:01.257Z,2.90
2022-09-01T09:15:10.191Z,2.90
2022-09-01T09:16:08.679Z,2.90
2022-09-01T09:17:00.282Z,2.90
2022-09-01T09:18:20.604Z,2.90
2022-09-01T09:19:06.999Z,2.90
2022-09-01T09:20:00.492Z,2.90
2022-09-01T09:21:05.706Z,2.90
2022-09-01T09:22:02.156Z,2.90
2022-09-01T09:23:06.188Z,2.90
2022-09-01T09:24:03.736Z,2.90
2022-09-01T09:25:05.481Z,2.90
2022-09-01T09:26:00.261Z,2.90
2022-09-01T09:27:00.279Z,2.90
2022-09-01T09:28:00.817Z,2.90
2022-09-01T09:29:00.293Z,2.90
2022-09-01T09:30:05.718Z,2.90
2022-09-01T09:31:10.215Z,2.90
2022-09-01T09:32:02.238Z,2.90
2022-09-01T09:33:44.363Z,2.90
2022-09-01T09:34:00.615Z,2.90
2022-09-01T09:35:10.189Z,2.90
2022-09-01T09:36:10.209Z,2.90
2022-09-01T09:37:10.166Z,2.90
2022-09-01T09:38:10.175Z,2.90
2022-09-01T09:39:07.784Z,2.90
2022-09-01T09:40:04.246Z,2.90
2022-09-01T09:41:17.787Z,2.90
2022-09-01T09:42:06.162Z,2.90
2022-09-01T09:43:02.083Z,2.90
2022-09-01T09:44:00.278Z,2.60
2022-09-01T09:45:00.616Z,2.60
2022-09-01T09:46:23.397Z,2.60
2022-09-01T09:47:00.398Z,2.60
2022-09-01T09:48:04.388Z,2.60
2022-09-01T09:49:10.169Z,2.60
2022-09-01T09:50:10.192Z,2.60
2022-09-01T09:51:10.355Z,2.60
2022-09-01T09:52:01.291Z,2.60
2022-09-01T09:53:10.228Z,2.60
2022-09-01T09:54:10.237Z,2.60
2022-09-01T09:55:04.631Z,2.60
2022-09-01T09:56:08.408Z,2.60
2022-09-01T09:57:01.274Z,2.60
2022-09-01T09:58:08.463Z,2.60
2022-09-01T09:59:00.576Z,2.60
2022-09-01T10:00:05.741Z,2.60
2022-09-01T10:01:10.207Z,2.60
2022-09-01T10:02:10.196Z,2.60
2022-09-01T10:03:10.005Z,2.60
2022-09-01T10:04:00.968Z,2.60
2022-09-01T10:05:10.198Z,2.60
2022-09-01T10:06:00.263Z,2.60
2022-09-01T10:07:00.705Z,2.60
2022-09-01T10:08:00.379Z,2.60
2022-09-01T10:09:03.624Z,2.60
2022-09-01T10:10:01.908Z,2.60
2022-09-01T10:11:00.435Z,2.60
2022-09-01T10:12:00.944Z,2.60
2022-09-01T10:13:01.881Z,2.60
2022-09-01T10:14:00.459Z,2.50
2022-09-01T10:15:11.625Z,2.50
2022-09-01T10:16:01.885Z,2.50
2022-09-01T10:17:04.527Z,2.50
2022-09-01T10:18:22.052Z,2.50
2022-09-01T10:19:01.206Z,2.50
2022-09-01T10:20:03.055Z,2.50
2022-09-01T10:21:02.277Z,2.50
2022-09-01T10:22:01.438Z,2.50
2022-09-01T10:23:00.841Z,2.50
2022-09-01T10:24:20.542Z,2.50
2022-09-01T10:25:00.271Z,2.50
2022-09-01T10:26:09.088Z,2.50
2022-09-01T10:27:01.861Z,2.50
2022-09-01T10:28:07.013Z,2.50
2022-09-01T10:29:04.936Z,2.50
2022-09-01T10:30:14.623Z,2.50
2022-09-01T10:31:00.334Z,2.50
2022-09-01T10:32:30.568Z,2.50
2022-09-01T10:33:07.754Z,2.50
2022-09-01T10:34:02.506Z,2.50
2022-09-01T10:35:01.594Z,2.50
2022-09-01T10:36:00.476Z,2.50
2022-09-01T10:37:00.514Z,2.50
2022-09-01T10:38:03.713Z,2.50
2022-09-01T10:39:04.795Z,2.50
2022-09-01T10:40:10.312Z,2.50
2022-09-01T10:41:00.400Z,2.50
2022-09-01T10:42:00.970Z,2.50
2022-09-01T10:43:12.406Z,2.50
2022-09-01T10:44:08.692Z,2.90
2022-09-01T10:45:00.519Z,2.90
2022-09-01T10:46:09.099Z,2.90
2022-09-01T10:47:04.079Z,2.90
2022-09-01T10:48:13.277Z,2.90
2022-09-01T10:49:04.358Z,2.90
2022-09-01T10:50:07.712Z,2.90
2022-09-01T10:51:10.164Z,2.90
2022-09-01T10:52:07.385Z,2.90
2022-09-01T10:53:01.512Z,2.90
2022-09-01T10:54:02.579Z,2.90
2022-09-01T10:55:01.927Z,2.90
2022-09-01T10:56:23.385Z,2.90
2022-09-01T10:57:04.016Z,2.90
2022-09-01T10:58:09.254Z,2.90
2022-09-01T10:59:37.248Z,2.90
2022-09-01T11:00:34.839Z,2.90
2022-09-01T11:01:15.541Z,2.90
2022-09-01T11:02:36.885Z,2.90
2022-09-01T11:03:30.480Z,2.90
2022-09-01T11:04:00.490Z,2.90
2022-09-01T11:05:00.678Z,2.90
2022-09-01T11:06:13.024Z,2.90
2022-09-01T11:07:14.688Z,2.90
2022-09-01T11:08:15.709Z,2.90
2022-09-01T11:09:03.356Z,2.90
2022-09-01T11:10:11.388Z,2.90
2022-09-01T11:11:06.958Z,2.90
2022-09-01T11:12:07.569Z,2.90
2022-09-01T11:13:10.171Z,2.90
2022-09-01T11:14:00.649Z,2.40
2022-09-01T11:15:03.120Z,2.40
2022-09-01T11:16:10.241Z,2.40
2022-09-01T11:17:10.234Z,2.40
2022-09-01T11:18:01.314Z,2.40
2022-09-01T11:19:15.561Z,2.40
2022-09-01T11:20:03.611Z,2.40
2022-09-01T11:21:10.188Z,2.40
2022-09-01T11:22:09.926Z,2.40
2022-09-01T11:23:10.186Z,2.40
2022-09-01T11:24:10.175Z,2.40
2022-09-01T11:25:11.553Z,2.40
2022-09-01T11:26:21.214Z,2.40
2022-09-01T11:27:00.273Z,2.40
2022-09-01T11:28:01.571Z,2.40
2022-09-01T11:29:00.402Z,2.40
2022-09-01T11:30:07.853Z,2.40
2022-09-01T11:31:10.182Z,2.40
2022-09-01T11:32:00.606Z,2.40
2022-09-01T11:33:07.712Z,2.40
2022-09-01T11:34:10.029Z,2.40
2022-09-01T11:35:03.761Z,2.40
2022-09-01T11:36:02.313Z,2.40
2022-09-01T11:37:00.578Z,2.40
2022-09-01T11:38:03.671Z,2.40
2022-09-01T11:39:04.271Z,2.40
2022-09-01T11:40:01.449Z,2.40
2022-09-01T11:41:00.266Z,2.40
2022-09-01T11:42:10.181Z,2.40
2022-09-01T11:43:12.475Z,2.40
2022-09-01T11:44:02.460Z,2.60
2022-09-01T11:45:04.196Z,2.60
2022-09-01T11:46:01.285Z,2.60
2022-09-01T11:47:03.663Z,2.60
2022-09-01T11:48:05.135Z,2.60
2022-09-01T11:49:05.730Z,2.60
2022-09-01T11:50:03.146Z,2.60
2022-09-01T11:51:01.515Z,2.60
2022-09-01T11:52:01.396Z,2.60
2022-09-01T11:53:06.627Z,2.60
2022-09-01T11:54:01.446Z,2.60
2022-09-01T11:55:01.029Z,2.60
2022-09-01T11:56:10.185Z,2.60
2022-09-01T11:57:10.181Z,2.60
2022-09-01T11:58:00.757Z,2.60
2022-09-01T11:59:00.340Z,2.60
2022-09-01T12:00:02.115Z,2.60
2022-09-01T12:01:10.176Z,2.60
2022-09-01T12:02:00.386Z,2.60
2022-09-01T12:03:00.458Z,2.60
2022-09-01T12:04:10.187Z,2.60
2022-09-01T12:05:01.605Z,2.60
2022-09-01T12:06:02.699Z,2.60
2022-09-01T12:07:02.431Z,2.60
2022-09-01T12:08:02.650Z,2.60
2022-09-01T12:09:02.832Z,2.60
2022-09-01T12:10:00.434Z,2.60
2022-09-01T12:11:05.742Z,2.60
2022-09-01T12:12:00.337Z,2.60
2022-09-01T12:13:01.262Z,2.60
2022-09-01T12:14:00.263Z,2.40
2022-09-01T12:15:06.176Z,2.40
2022-09-01T12:16:17.402Z,2.40
2022-09-01T12:17:03.586Z,2.40
2022-09-01T12:18:09.581Z,2.40
2022-09-01T12:19:00.373Z,2.40
2022-09-01T12:20:10.174Z,2.40
2022-09-01T12:21:01.260Z,2.40
2022-09-01T12:22:03.373Z,2.40
2022-09-01T12:23:00.681Z,2.40
2022-09-01T12:24:10.163Z,2.40
2022-09-01T12:25:00.483Z,2.40
2022-09-01T12:26:01.508Z,2.40
2022-09-01T12:27:00.599Z,2.40
2022-09-01T12:28:01.584Z,2.40
2022-09-01T12:29:00.282Z,2.40
2022-09-01T12:30:00.367Z,2.40
2022-09-01T12:31:03.932Z,2.40
2022-09-01T12:32:00.590Z,2.40
2022-09-01T12:33:24.554Z,2.40
2022-09-01T12:34:00.287Z,2.40
2022-09-01T12:35:05.592Z,2.40
2022-09-01T12:36:10.240Z,2.40
2022-09-01T12:37:10.181Z,2.40
2022-09-01T12:38:10.183Z,2.40
2022-09-01T12:39:10.164Z,2.40
2022-09-01T12:40:00.327Z,2.40
2022-09-01T12:41:00.346Z,2.40
2022-09-01T12:42:02.271Z,2.40
2022-09-01T12:43:00.342Z,2.40
2022-09-01T12:44:10.176Z,2.90
2022-09-01T12:45:03.444Z,2.90
2022-09-01T12:46:00.339Z,2.90
2022-09-01T12:47:02.413Z,2.90
2022-09-01T12:48:00.263Z,2.90
2022-09-01T12:49:10.793Z,2.90
2022-09-01T12:50:03.914Z,2.90
2022-09-01T12:51:10.172Z,2.90
2022-09-01T12:52:10.181Z,2.90
2022-09-01T12:53:01.559Z,2.90
2022-09-01T12:54:00.617Z,2.90
2022-09-01T12:55:00.258Z,2.90
2022-09-01T12:56:05.025Z,2.90
2022-09-01T12:57:00.298Z,2.90
2022-09-01T12:58:03.805Z,2.90
2022-09-01T12:59:15.694Z,2.90
2022-09-01T13:00:07.886Z,2.90
2022-09-01T13:01:03.605Z,2.90
2022-09-01T13:02:10.330Z,2.90
2022-09-01T13:03:01.262Z,2.90
2022-09-01T13:04:10.169Z,2.90
2022-09-01T13:05:10.181Z,2.90
2022-09-01T13:06:01.541Z,2.90
2022-09-01T13:07:02.172Z,2.90
2022-09-01T13:08:01.807Z,2.90
2022-09-01T13:09:00.287Z,2.90
2022-09-01T13:10:00.406Z,2.90
2022-09-01T13:11:05.058Z,2.90
2022-09-01T13:12:08.485Z,2.90
2022-09-01T13:13:00.269Z,2.90
2022-09-01T13:14:00.273Z,2.70
2022-09-01T13:15:00.331Z,2.70
2022-09-01T13:16:01.107Z,2.70
2022-09-01T13:17:00.250Z,2.70
2022-09-01T13:18:00.300Z,2.70
2022-09-01T13:19:12.561Z,2.70
2022-09-01T13:20:00.486Z,2.70
2022-09-01T13:21:00.448Z,2.70
2022-09-01T13:22:00.300Z,2.70
2022-09-01T13:23:00.293Z,2.70
2022-09-01T13:24:00.765Z,2.70
2022-09-01T13:25:01.224Z,2.70
2022-09-01T13:26:00.294Z,2.70
2022-09-01T13:27:22.641Z,2.70
2022-09-01T13:28:01.399Z,2.70
2022-09-01T13:29:00.660Z,2.70
2022-09-01T13:30:00.299Z,2.70
2022-09-01T13:31:30.792Z,2.70